Time;durP1;ratioP1;P1;durP2;ratioP2;P2;SDS_P1;SDS_P2;PMS_P1;PMS_P2;Temp;Humidity;BMP_temperature;BMP_pressure;BME280_temperature;BME280_humidity;BME280_pressure;Samples;Min_cycle;Max_cycle;Signal;HPM_P1;HPM_P2
2021/06/22 00:00:20;;;;;;;1.45;1.20;;;22.30;99.90;;;;;;4421683;32;20074;-75
2021/06/22 00:02:46;;;;;;;2.22;1.30;;;22.20;99.90;;;;;;4421236;32;20123;-75
2021/06/22 00:05:12;;;;;;;0.30;0.30;;;22.20;99.90;;;;;;4419543;32;20078;-75
2021/06/22 00:07:39;;;;;;;0.40;0.40;;;22.20;99.90;;;;;;4420541;32;20073;-75
2021/06/22 00:10:05;;;;;;;0.75;0.62;;;22.30;99.90;;;;;;4420004;32;20069;-75
2021/06/22 00:12:31;;;;;;;2.28;1.25;;;22.30;99.90;;;;;;4420831;32;20531;-75
2021/06/22 00:14:58;;;;;;;0.22;0.22;;;22.30;99.90;;;;;;4419523;32;20066;-75
2021/06/22 00:17:23;;;;;;;3.12;0.93;;;22.10;99.90;;;;;;4422274;32;20081;-75
2021/06/22 00:19:49;;;;;;;0.25;0.25;;;22.10;99.90;;;;;;4421272;32;20065;-75
2021/06/22 00:22:14;;;;;;;0.50;0.50;;;22.00;99.90;;;;;;4423806;32;20078;-75
2021/06/22 00:24:40;;;;;;;0.47;0.30;;;22.10;99.90;;;;;;4420466;32;20061;-75
2021/06/22 00:27:05;;;;;;;0.80;0.43;;;22.00;99.90;;;;;;4424209;32;20074;-76
2021/06/22 00:29:31;;;;;;;0.55;0.55;;;21.90;99.90;;;;;;4419934;32;20368;-76
2021/06/22 00:31:56;;;;;;;0.50;0.50;;;21.80;99.90;;;;;;4420094;32;20073;-76
2021/06/22 00:34:22;;;;;;;0.40;0.40;;;21.80;99.90;;;;;;4421434;32;20123;-76
2021/06/22 00:36:47;;;;;;;3.45;0.80;;;21.90;99.90;;;;;;4419843;32;20078;-76
2021/06/22 00:39:13;;;;;;;1.23;0.60;;;21.90;99.90;;;;;;4419876;32;20074;-76
2021/06/22 00:41:39;;;;;;;1.42;0.82;;;21.90;99.90;;;;;;4422852;32;20066;-77
2021/06/22 00:44:06;;;;;;;0.70;0.70;;;22.00;99.90;;;;;;4420608;32;20124;-74
2021/06/22 00:46:31;;;;;;;0.50;0.50;;;22.00;99.90;;;;;;4421005;32;20078;-76
2021/06/22 00:48:57;;;;;;;1.15;0.52;;;22.00;99.90;;;;;;4418934;32;20531;-76
2021/06/22 00:51:22;;;;;;;0.77;0.77;;;21.80;99.90;;;;;;4420131;32;20062;-74
2021/06/22 00:53:49;;;;;;;1.55;0.70;;;21.70;99.90;;;;;;4419908;32;20065;-75
2021/06/22 00:56:14;;;;;;;0.40;0.40;;;21.70;99.90;;;;;;4423459;32;20090;-75
2021/06/22 00:58:42;;;;;;;0.45;0.32;;;21.70;99.90;;;;;;4423496;32;20081;-75
2021/06/22 01:01:08;;;;;;;0.65;0.40;;;21.60;99.90;;;;;;4421895;32;20082;-75
2021/06/22 01:03:33;;;;;;;0.43;0.40;;;21.70;99.90;;;;;;4420946;32;20538;-75
2021/06/22 01:05:59;;;;;;;1.70;0.50;;;21.60;99.90;;;;;;4419078;32;20065;-75
2021/06/22 01:08:26;;;;;;;0.30;0.30;;;21.60;99.90;;;;;;4419131;32;20058;-75
2021/06/22 01:10:52;;;;;;;0.88;0.52;;;21.60;99.90;;;;;;4418950;32;20121;-76
2021/06/22 01:13:17;;;;;;;0.98;0.88;;;21.60;99.90;;;;;;4418980;32;20121;-76
2021/06/22 01:15:43;;;;;;;0.50;0.50;;;21.60;99.90;;;;;;4421154;32;20072;-75
2021/06/22 01:18:08;;;;;;;0.20;0.20;;;21.50;99.90;;;;;;4419191;32;20070;-75
2021/06/22 01:20:36;;;;;;;0.30;0.30;;;21.60;99.90;;;;;;4424390;32;20078;-76
2021/06/22 01:23:04;;;;;;;0.47;0.47;;;21.60;99.90;;;;;;4419110;32;20121;-75
2021/06/22 01:25:30;;;;;;;0.47;0.47;;;21.50;99.90;;;;;;4422396;32;20510;-76
2021/06/22 01:27:56;;;;;;;0.47;0.47;;;21.40;99.90;;;;;;4422370;32;20057;-75
2021/06/22 01:30:23;;;;;;;0.35;0.35;;;21.50;99.90;;;;;;4418365;32;20086;-75
2021/06/22 01:32:48;;;;;;;0.37;0.37;;;21.50;99.90;;;;;;4420377;32;20498;-75
2021/06/22 01:35:14;;;;;;;0.80;0.80;;;21.50;99.90;;;;;;4418810;32;20061;-76
2021/06/22 01:37:58;;;;;;;0.40;0.40;;;21.40;99.90;;;;;;4419585;32;20111;-75
2021/06/22 01:40:24;;;;;;;0.90;0.50;;;21.40;99.90;;;;;;4419752;32;20680;-75
2021/06/22 01:42:50;;;;;;;0.60;0.60;;;21.50;99.90;;;;;;4418351;32;20125;-75
2021/06/22 01:45:16;;;;;;;0.45;0.45;;;21.60;99.90;;;;;;4421054;32;20130;-75
2021/06/22 01:47:43;;;;;;;0.20;0.20;;;21.40;99.90;;;;;;4421067;32;20077;-75
2021/06/22 01:50:09;;;;;;;1.30;0.95;;;21.40;99.90;;;;;;4418701;32;20121;-75
2021/06/22 01:52:34;;;;;;;0.50;0.50;;;21.20;99.90;;;;;;4419470;32;20482;-75
2021/06/22 01:55:33;;;;;;;0.50;0.40;;;21.20;99.90;;;;;;4418024;32;20069;-75
2021/06/22 01:57:46;;;;;;;1.70;0.68;;;21.10;99.90;;;;;;4413421;32;20066;-75
2021/06/22 02:00:12;;;;;;;0.93;0.68;;;21.10;99.90;;;;;;4419406;32;20086;-76
2021/06/22 02:02:37;;;;;;;0.25;0.25;;;21.30;99.90;;;;;;4423017;32;20108;-75
2021/06/22 02:05:04;;;;;;;0.32;0.32;;;21.20;99.90;;;;;;4418263;32;20479;-75
2021/06/22 02:07:29;;;;;;;0.50;0.43;;;21.10;99.90;;;;;;4421159;32;20116;-75
2021/06/22 02:09:55;;;;;;;1.83;0.93;;;21.10;99.90;;;;;;4418022;32;20124;-75
2021/06/22 02:12:20;;;;;;;1.23;0.85;;;21.10;99.90;;;;;;4422634;32;20089;-75
2021/06/22 02:14:46;;;;;;;0.60;0.60;;;21.00;99.90;;;;;;4420976;32;20119;-75
2021/06/22 02:17:11;;;;;;;55.53;2.83;;;21.10;99.90;;;;;;4418384;32;20069;-75
2021/06/22 02:19:36;;;;;;;2.67;0.77;;;21.20;99.90;;;;;;4421537;32;20073;-76
2021/06/22 02:22:02;;;;;;;4.20;1.20;;;21.10;99.90;;;;;;4421280;32;20061;-75
2021/06/22 02:24:28;;;;;;;2.78;1.10;;;21.10;99.90;;;;;;4419233;32;20530;-75
2021/06/22 02:26:53;;;;;;;0.37;0.37;;;21.10;99.90;;;;;;4418906;32;20058;-75
2021/06/22 02:29:19;;;;;;;0.50;0.50;;;20.90;99.90;;;;;;4419376;32;20608;-76
2021/06/22 02:31:44;;;;;;;2.58;0.47;;;20.90;99.90;;;;;;4418550;32;20416;-75
2021/06/22 02:34:09;;;;;;;0.55;0.43;;;20.90;99.90;;;;;;4420314;32;20128;-75
2021/06/22 02:36:35;;;;;;;0.25;0.25;;;20.80;99.90;;;;;;4419438;32;20062;-75
2021/06/22 02:39:01;;;;;;;0.50;0.50;;;20.80;99.90;;;;;;4419346;32;20077;-75
2021/06/22 02:41:26;;;;;;;0.75;0.57;;;20.90;99.90;;;;;;4420667;32;20061;-75
2021/06/22 02:43:52;;;;;;;1.25;1.00;;;20.80;99.90;;;;;;4418930;32;20107;-75
2021/06/22 02:46:17;;;;;;;0.37;0.37;;;20.90;99.90;;;;;;4418234;32;20416;-75
2021/06/22 02:48:43;;;;;;;0.20;0.20;;;20.90;99.90;;;;;;4420594;32;20157;-75
2021/06/22 02:51:08;;;;;;;12.63;1.35;;;21.00;99.90;;;;;;4419402;32;20058;-76
2021/06/22 02:53:34;;;;;;;2.62;0.57;;;21.10;99.90;;;;;;4418522;32;20083;-76
2021/06/22 02:55:59;;;;;;;0.40;0.40;;;21.20;99.90;;;;;;4419133;32;20514;-76
2021/06/22 02:58:25;;;;;;;0.50;0.50;;;21.30;99.90;;;;;;4418804;32;20062;-76
2021/06/22 03:00:50;;;;;;;0.77;0.50;;;21.30;99.90;;;;;;4419550;32;20081;-76
2021/06/22 03:03:16;;;;;;;0.25;0.25;;;21.20;99.90;;;;;;4419572;32;20476;-76
2021/06/22 03:05:41;;;;;;;0.30;0.30;;;21.20;99.90;;;;;;4420212;32;20113;-76
2021/06/22 03:08:07;;;;;;;6.12;1.08;;;21.20;99.90;;;;;;4418928;32;20062;-75
2021/06/22 03:10:32;;;;;;;0.75;0.75;;;21.20;99.90;;;;;;4418829;32;20058;-75
2021/06/22 03:12:59;;;;;;;0.52;0.52;;;21.20;99.90;;;;;;4416917;32;20085;-75
2021/06/22 03:15:25;;;;;;;0.30;0.30;;;21.20;99.90;;;;;;4420986;32;20405;-75
2021/06/22 03:17:50;;;;;;;0.62;0.62;;;21.20;99.90;;;;;;4419041;32;20058;-75
2021/06/22 03:20:17;;;;;;;10.05;0.43;;;21.10;99.90;;;;;;4420411;32;20074;-75
2021/06/22 03:22:42;;;;;;;0.52;0.52;;;21.10;99.90;;;;;;4418509;32;20064;-75
2021/06/22 03:25:10;;;;;;;0.40;0.40;;;21.00;99.90;;;;;;4417260;32;20071;-76
2021/06/22 03:27:37;;;;;;;1.00;0.40;;;21.00;99.90;;;;;;4419356;32;20082;-75
2021/06/22 03:30:05;;;;;;;1.20;0.55;;;21.00;99.90;;;;;;4417660;32;20058;-75
2021/06/22 03:32:31;;;;;;;0.35;0.35;;;21.10;99.90;;;;;;4421042;32;20589;-76
2021/06/22 03:34:56;;;;;;;0.28;0.28;;;21.10;99.90;;;;;;4418420;32;20078;-75
2021/06/22 03:37:22;;;;;;;0.60;0.60;;;21.00;99.90;;;;;;4418157;32;20070;-75
2021/06/22 03:39:47;;;;;;;5.62;1.65;;;20.90;99.90;;;;;;4418456;32;20054;-75
2021/06/22 03:42:14;;;;;;;0.50;0.50;;;20.80;99.90;;;;;;4417945;32;20073;-75
2021/06/22 03:44:39;;;;;;;2.28;1.58;;;20.90;99.90;;;;;;4418628;32;20130;-75
2021/06/22 03:47:05;;;;;;;0.45;0.45;;;20.90;99.90;;;;;;4417195;32;20077;-75
2021/06/22 03:49:32;;;;;;;1.70;1.02;;;20.90;99.90;;;;;;4421286;32;20494;-75
2021/06/22 03:51:57;;;;;;;1.23;0.77;;;20.70;99.90;;;;;;4417520;32;20074;-75
2021/06/22 03:54:23;;;;;;;0.30;0.30;;;20.70;99.90;;;;;;4418835;32;20123;-75
2021/06/22 03:56:48;;;;;;;1.37;0.90;;;20.70;99.90;;;;;;4421169;32;20097;-75
2021/06/22 03:59:14;;;;;;;0.50;0.50;;;20.70;99.90;;;;;;4420236;32;20459;-75
2021/06/22 04:01:39;;;;;;;2.05;0.70;;;20.80;99.90;;;;;;4423927;32;20061;-74
2021/06/22 04:04:05;;;;;;;0.60;0.60;;;20.80;99.90;;;;;;4420134;32;20380;-75
2021/06/22 04:06:30;;;;;;;0.70;0.70;;;20.80;99.90;;;;;;4421648;32;20740;-75
2021/06/22 04:08:56;;;;;;;0.55;0.55;;;20.70;99.90;;;;;;4418926;32;20177;-75
2021/06/22 04:11:22;;;;;;;3.25;0.93;;;20.70;99.90;;;;;;4419880;32;20070;-75
2021/06/22 04:13:48;;;;;;;1.00;0.68;;;20.50;99.90;;;;;;4420669;32;20061;-75
2021/06/22 04:16:13;;;;;;;1.48;1.08;;;20.50;99.90;;;;;;4423488;32;20086;-75
2021/06/22 04:18:39;;;;;;;7.87;1.55;;;20.50;99.90;;;;;;4424381;32;20082;-75
2021/06/22 04:21:05;;;;;;;0.85;0.73;;;20.50;99.90;;;;;;4417009;32;20065;-75
2021/06/22 04:23:30;;;;;;;0.47;0.40;;;20.40;99.90;;;;;;4424963;32;20069;-76
2021/06/22 04:25:56;;;;;;;3.62;1.75;;;20.30;99.90;;;;;;4420685;32;20127;-76
2021/06/22 04:28:21;;;;;;;4.65;1.27;;;20.20;99.90;;;;;;4420920;32;20065;-76
2021/06/22 04:30:47;;;;;;;6.82;1.75;;;20.10;99.90;;;;;;4422163;32;20069;-76
2021/06/22 04:33:13;;;;;;;0.70;0.70;;;20.00;99.90;;;;;;4422094;32;20476;-76
2021/06/22 04:35:39;;;;;;;1.10;1.05;;;19.90;99.90;;;;;;4422399;32;20061;-76
2021/06/22 04:38:07;;;;;;;1.52;0.95;;;19.90;99.90;;;;;;4419253;32;20153;-76
2021/06/22 04:40:35;;;;;;;2.05;0.70;;;20.00;99.90;;;;;;4424294;32;20562;-76
2021/06/22 04:43:01;;;;;;;1.70;1.35;;;20.00;99.90;;;;;;4418301;32;20070;-75
2021/06/22 04:45:28;;;;;;;9.27;1.12;;;19.70;99.90;;;;;;4420279;32;20069;-75
2021/06/22 04:47:54;;;;;;;2.37;1.35;;;19.50;99.90;;;;;;4419190;32;20133;-75
2021/06/22 04:50:20;;;;;;;1.45;0.88;;;19.40;99.90;;;;;;4419836;32;20078;-76
2021/06/22 04:52:45;;;;;;;1.80;1.20;;;19.50;99.90;;;;;;4421273;32;20061;-75
2021/06/22 04:55:12;;;;;;;0.65;0.57;;;19.50;99.90;;;;;;4423492;32;20483;-75
2021/06/22 04:57:40;;;;;;;1.60;1.20;;;19.30;99.90;;;;;;4420983;32;20077;-75
2021/06/22 05:00:06;;;;;;;1.87;1.42;;;19.30;99.90;;;;;;4420294;32;20069;-75
2021/06/22 05:02:34;;;;;;;1.73;0.90;;;19.30;99.90;;;;;;4416166;32;20070;-75
2021/06/22 05:05:01;;;;;;;1.92;0.80;;;19.30;99.90;;;;;;4423371;32;20522;-75
2021/06/22 05:07:26;;;;;;;5.45;0.88;;;19.20;99.90;;;;;;4421675;32;20077;-75
2021/06/22 05:09:52;;;;;;;2.72;1.25;;;19.10;99.90;;;;;;4423205;32;20505;-76
2021/06/22 05:12:17;;;;;;;3.72;1.23;;;19.00;99.90;;;;;;4416583;32;20073;-75
2021/06/22 05:14:43;;;;;;;8.25;0.57;;;19.10;99.90;;;;;;4421821;32;20120;-75
2021/06/22 05:17:08;;;;;;;0.50;0.50;;;19.10;99.90;;;;;;4409006;32;20105;-75
2021/06/22 05:19:34;;;;;;;0.77;0.77;;;19.10;99.90;;;;;;4422009;32;20654;-76
2021/06/22 05:21:59;;;;;;;1.98;1.05;;;19.10;99.90;;;;;;4420230;32;20058;-76
2021/06/22 05:24:24;;;;;;;9.32;1.70;;;19.10;99.90;;;;;;4421818;32;20065;-76
2021/06/22 05:26:50;;;;;;;0.88;0.80;;;19.10;99.90;;;;;;4408367;32;20074;-76
2021/06/22 05:29:16;;;;;;;0.82;0.70;;;19.20;99.90;;;;;;4418100;32;20399;-76
2021/06/22 05:31:41;;;;;;;0.40;0.40;;;19.30;99.90;;;;;;4403793;32;20220;-75
2021/06/22 05:34:07;;;;;;;0.52;0.30;;;19.30;99.90;;;;;;4421311;32;20065;-75
2021/06/22 05:36:32;;;;;;;1.85;1.12;;;19.30;99.90;;;;;;4420146;32;20069;-75
2021/06/22 05:38:58;;;;;;;4.78;0.68;;;19.10;99.90;;;;;;4417859;32;20530;-75
2021/06/22 05:41:23;;;;;;;0.30;0.30;;;19.10;99.90;;;;;;4418478;32;20074;-75
2021/06/22 05:43:49;;;;;;;0.35;0.35;;;19.10;99.90;;;;;;4415628;32;20131;-75
2021/06/22 05:46:14;;;;;;;0.32;0.32;;;19.60;99.90;;;;;;4422125;32;20482;-76
2021/06/22 05:48:40;;;;;;;0.20;0.20;;;20.00;99.90;;;;;;4423239;32;20065;-76
2021/06/22 05:51:05;;;;;;;16.58;0.52;;;20.10;99.90;;;;;;4421954;32;20510;-75
2021/06/22 05:53:31;;;;;;;0.30;0.30;;;19.90;99.90;;;;;;4422357;32;20078;-76
2021/06/22 05:55:56;;;;;;;0.32;0.32;;;20.20;99.90;;;;;;4418388;32;20073;-75
2021/06/22 05:58:22;;;;;;;1.98;0.75;;;20.30;99.90;;;;;;4422784;32;21180;-76
2021/06/22 06:00:47;;;;;;;2.90;1.80;;;20.00;99.90;;;;;;4417710;32;20089;-76
2021/06/22 06:03:13;;;;;;;0.30;0.30;;;20.10;99.90;;;;;;4419729;32;20450;-76
2021/06/22 06:05:39;;;;;;;1.55;0.57;;;20.40;99.90;;;;;;4414149;32;20183;-75
2021/06/22 06:08:04;;;;;;;22.70;3.10;;;20.90;99.90;;;;;;4421127;32;20093;-77
2021/06/22 06:10:32;;;;;;;0.73;0.68;;;21.30;99.90;;;;;;4417888;32;20471;-76
2021/06/22 06:12:57;;;;;;;0.20;0.20;;;21.10;99.90;;;;;;4419047;32;20358;-76
2021/06/22 06:15:22;;;;;;;0.30;0.30;;;21.20;99.90;;;;;;4418137;32;20077;-77
2021/06/22 06:17:48;;;;;;;0.30;0.30;;;21.30;99.90;;;;;;4417053;32;20467;-76
2021/06/22 06:20:15;;;;;;;0.28;0.28;;;21.00;99.90;;;;;;4418152;32;20062;-76
2021/06/22 06:22:42;;;;;;;0.37;0.37;;;20.60;99.90;;;;;;4421837;32;20581;-78
2021/06/22 06:25:08;;;;;;;0.20;0.20;;;20.60;99.90;;;;;;4420188;32;20077;-76
2021/06/22 06:28:14;;;;;;;0.50;0.50;;;21.30;99.90;;;;;;4420859;32;20070;-76
2021/06/22 06:30:24;;;;;;;0.32;0.32;;;21.60;99.90;;;;;;4405484;32;20106;-76
2021/06/22 06:32:51;;;;;;;0.67;0.67;;;21.90;99.90;;;;;;4418651;32;20094;-76
2021/06/22 06:35:18;;;;;;;0.22;0.22;;;21.30;99.90;;;;;;4420233;32;20170;-76
2021/06/22 06:37:43;;;;;;;0.50;0.40;;;20.90;99.90;;;;;;4419540;32;20498;-77
2021/06/22 06:40:13;;;;;;;0.30;0.30;;;20.50;99.90;;;;;;4422963;32;20049;-77
2021/06/22 06:42:39;;;;;;;0.20;0.20;;;20.40;99.90;;;;;;4420097;32;20069;-77
2021/06/22 06:45:07;;;;;;;0.40;0.40;;;20.20;99.90;;;;;;4420397;32;20106;-79
2021/06/22 06:47:33;;;;;;;0.50;0.45;;;20.00;99.90;;;;;;4428248;32;20126;-78
2021/06/22 06:49:59;;;;;;;1.62;0.93;;;20.40;99.90;;;;;;4426523;32;20177;-78
2021/06/22 06:52:24;;;;;;;0.45;0.45;;;20.70;99.90;;;;;;4425147;32;20781;-76
2021/06/22 06:54:50;;;;;;;0.30;0.30;;;20.30;99.90;;;;;;4421086;32;20075;-77
2021/06/22 06:57:15;;;;;;;14.05;0.65;;;20.40;99.90;;;;;;4423902;32;20518;-77
2021/06/22 06:59:41;;;;;;;1.65;1.15;;;20.50;99.90;;;;;;4419370;32;20093;-77
2021/06/22 07:02:06;;;;;;;0.35;0.35;;;20.60;99.90;;;;;;4419850;32;20077;-76
2021/06/22 07:04:33;;;;;;;0.37;0.37;;;20.50;99.90;;;;;;4421709;32;20124;-77
2021/06/22 07:06:59;;;;;;;0.32;0.32;;;20.70;99.90;;;;;;4418222;32;20096;-77
2021/06/22 07:09:25;;;;;;;0.20;0.20;;;20.80;99.90;;;;;;4421758;32;20077;-78
2021/06/22 07:11:50;;;;;;;0.75;0.40;;;21.20;99.90;;;;;;4421366;32;20086;-77
2021/06/22 07:14:16;;;;;;;0.32;0.32;;;20.90;99.90;;;;;;4419877;32;20112;-74
2021/06/22 07:16:42;;;;;;;12.37;0.70;;;21.10;99.90;;;;;;4420042;32;20142;-75
2021/06/22 07:19:08;;;;;;;0.30;0.30;;;21.20;99.90;;;;;;4420873;32;20077;-76
2021/06/22 07:21:33;;;;;;;0.30;0.30;;;21.10;99.90;;;;;;4420949;32;20086;-76
2021/06/22 07:23:59;;;;;;;0.20;0.20;;;20.70;99.90;;;;;;4419120;32;20111;-76
2021/06/22 07:26:24;;;;;;;0.20;0.20;;;20.40;99.90;;;;;;4421582;32;20082;-76
2021/06/22 07:28:51;;;;;;;0.85;0.57;;;20.40;99.90;;;;;;4422041;32;20116;-76
2021/06/22 07:31:17;;;;;;;7.03;0.68;;;20.70;99.90;;;;;;4420797;32;20150;-76
2021/06/22 07:33:42;;;;;;;0.50;0.50;;;21.10;99.90;;;;;;4422748;32;20127;-75
2021/06/22 07:36:08;;;;;;;10.82;1.73;;;21.40;99.90;;;;;;4418472;32;20446;-75
2021/06/22 07:38:34;;;;;;;5.95;0.37;;;21.10;99.90;;;;;;4422036;32;20148;-75
2021/06/22 07:41:00;;;;;;;0.70;0.30;;;20.60;99.90;;;;;;4420197;32;20074;-75
2021/06/22 07:43:26;;;;;;;0.30;0.30;;;20.20;99.90;;;;;;4419919;32;20065;-75
2021/06/22 07:45:52;;;;;;;0.40;0.40;;;20.50;99.90;;;;;;4422574;32;20158;-73
2021/06/22 07:48:17;;;;;;;0.28;0.28;;;21.00;99.90;;;;;;4420726;32;20078;-74
2021/06/22 07:50:43;;;;;;;0.95;0.43;;;20.80;99.90;;;;;;4421498;32;20423;-74
2021/06/22 07:53:09;;;;;;;4.68;0.52;;;20.60;99.90;;;;;;4417257;32;20082;-74
2021/06/22 07:55:34;;;;;;;0.40;0.40;;;20.10;99.90;;;;;;4420714;32;20208;-75
2021/06/22 07:58:00;;;;;;;0.57;0.47;;;20.30;99.90;;;;;;4419990;32;20057;-74
2021/06/22 08:00:45;;;;;;;0.25;0.25;;;20.20;99.90;;;;;;4419491;32;20534;-75
2021/06/22 08:03:14;;;;;;;0.35;0.35;;;20.30;99.90;;;;;;4419998;32;21746;-75
2021/06/22 08:05:42;;;;;;;1.98;0.40;;;20.50;99.90;;;;;;4421986;32;20529;-74
2021/06/22 08:08:09;;;;;;;0.47;0.47;;;20.80;99.90;;;;;;4418284;32;20057;-74
2021/06/22 08:10:35;;;;;;;0.28;0.28;;;20.60;99.90;;;;;;4422356;32;20078;-74
2021/06/22 08:13:02;;;;;;;0.20;0.20;;;20.40;99.90;;;;;;4416473;32;20079;-74
2021/06/22 08:15:29;;;;;;;0.35;0.35;;;20.60;99.90;;;;;;4422463;32;20086;-74
2021/06/22 08:17:56;;;;;;;0.30;0.30;;;21.10;99.90;;;;;;4419634;32;20109;-74
2021/06/22 08:20:22;;;;;;;0.50;0.50;;;21.40;99.90;;;;;;4421310;32;20213;-74
2021/06/22 08:22:52;;;;;;;0.50;0.50;;;21.40;99.90;;;;;;4419242;32;20116;-74
2021/06/22 08:25:23;;;;;;;0.30;0.30;;;21.00;99.90;;;;;;4421867;32;20459;-74
2021/06/22 08:27:49;;;;;;;0.30;0.30;;;20.60;99.90;;;;;;4419422;32;20522;-75
2021/06/22 08:30:15;;;;;;;0.28;0.28;;;20.60;99.90;;;;;;4422993;32;20129;-74
2021/06/22 08:32:40;;;;;;;0.35;0.25;;;20.60;99.90;;;;;;4422596;32;20135;-74
2021/06/22 08:35:06;;;;;;;0.25;0.25;;;20.50;99.90;;;;;;4420799;32;20401;-73
2021/06/22 08:37:32;;;;;;;0.32;0.32;;;20.40;99.90;;;;;;4424119;32;20073;-74
2021/06/22 08:39:57;;;;;;;0.40;0.40;;;20.70;99.90;;;;;;4420889;32;20065;-76
2021/06/22 08:42:24;;;;;;;0.20;0.20;;;20.80;99.90;;;;;;4415425;32;20706;-74
2021/06/22 08:44:50;;;;;;;0.22;0.20;;;21.20;99.90;;;;;;4419943;32;20078;-74
2021/06/22 08:47:23;;;;;;;0.75;0.40;;;21.60;99.90;;;;;;4418942;32;20129;-74
2021/06/22 08:49:52;;;;;;;0.30;0.30;;;21.90;99.90;;;;;;4419556;32;20081;-74
2021/06/22 08:52:24;;;;;;;0.20;0.20;;;22.20;99.90;;;;;;4421341;32;20074;-74
2021/06/22 08:54:52;;;;;;;0.28;0.28;;;22.20;99.90;;;;;;4422478;32;20069;-74
2021/06/22 08:57:18;;;;;;;1.95;0.93;;;22.20;99.90;;;;;;4418530;32;20066;-74
2021/06/22 08:59:45;;;;;;;0.55;0.50;;;22.30;99.90;;;;;;4420797;32;20077;-73
2021/06/22 09:02:10;;;;;;;0.60;0.60;;;21.90;99.90;;;;;;4418656;32;20448;-74
2021/06/22 09:04:36;;;;;;;0.25;0.25;;;21.80;99.90;;;;;;4419233;32;20129;-73
2021/06/22 09:07:02;;;;;;;0.20;0.20;;;21.50;99.90;;;;;;4419980;32;20054;-74
2021/06/22 09:09:36;;;;;;;0.35;0.35;;;21.10;99.90;;;;;;4419548;32;20392;-74
2021/06/22 09:12:05;;;;;;;3.40;0.68;;;21.00;99.90;;;;;;4417181;32;20595;-73
2021/06/22 09:14:35;;;;;;;0.30;0.30;;;20.80;99.90;;;;;;4423013;32;20061;-74
2021/06/22 09:17:02;;;;;;;0.20;0.20;;;21.00;99.90;;;;;;4420583;32;20065;-74
2021/06/22 09:19:27;;;;;;;0.30;0.30;;;20.70;99.90;;;;;;4418080;32;20086;-75
2021/06/22 09:21:53;;;;;;;0.77;0.68;;;20.50;99.90;;;;;;4418132;32;20057;-73
2021/06/22 09:24:21;;;;;;;0.30;0.30;;;19.90;99.90;;;;;;4418846;32;20475;-75
2021/06/22 09:26:49;;;;;;;0.20;0.20;;;19.90;99.90;;;;;;4422835;32;20148;-74
2021/06/22 09:29:20;;;;;;;0.40;0.37;;;20.40;99.90;;;;;;4419004;32;20084;-75
2021/06/22 09:31:51;;;;;;;0.30;0.30;;;20.80;99.90;;;;;;4418776;32;20058;-74
2021/06/22 09:34:18;;;;;;;0.45;0.40;;;21.10;99.90;;;;;;4419124;32;20061;-75
2021/06/22 09:36:50;;;;;;;0.20;0.20;;;21.10;99.90;;;;;;4418058;32;20061;-74
2021/06/22 09:39:16;;;;;;;0.20;0.20;;;21.00;99.90;;;;;;4421816;32;20081;-74
2021/06/22 09:41:43;;;;;;;0.20;0.20;;;21.10;99.90;;;;;;4416990;32;76165;-74
2021/06/22 09:44:13;;;;;;;2.35;1.55;;;20.80;99.90;;;;;;4420912;32;20154;-74
2021/06/22 09:46:42;;;;;;;0.32;0.32;;;20.90;99.90;;;;;;4420820;32;20089;-74
2021/06/22 09:49:10;;;;;;;0.52;0.50;;;21.00;99.90;;;;;;4418379;32;20725;-74
2021/06/22 09:51:49;;;;;;;0.40;0.40;;;20.90;99.90;;;;;;4422742;32;20065;-74
2021/06/22 09:54:21;;;;;;;0.20;0.20;;;20.80;99.90;;;;;;4420951;32;20478;-74
2021/06/22 09:57:15;;;;;;;0.30;0.30;;;20.60;99.90;;;;;;4420444;32;20302;-74
2021/06/22 09:59:51;;;;;;;0.77;0.52;;;20.30;99.90;;;;;;4409398;32;20069;-74
2021/06/22 10:02:17;;;;;;;8.15;0.60;;;20.10;99.90;;;;;;4420853;32;20518;-75
2021/06/22 10:04:47;;;;;;;0.47;0.47;;;20.10;99.90;;;;;;4421883;32;20069;-73
2021/06/22 10:07:16;;;;;;;0.50;0.50;;;20.30;99.90;;;;;;4418970;32;20057;-74
2021/06/22 10:09:42;;;;;;;0.50;0.50;;;20.70;99.90;;;;;;4420438;32;20510;-74
2021/06/22 10:12:10;;;;;;;0.22;0.22;;;20.70;99.90;;;;;;4417882;32;20097;-74
2021/06/22 10:14:38;;;;;;;0.57;0.57;;;20.70;99.90;;;;;;4421097;32;20094;-75
2021/06/22 10:17:07;;;;;;;0.70;0.60;;;20.70;99.90;;;;;;4417075;32;20081;-75
2021/06/22 10:19:33;;;;;;;0.20;0.20;;;20.80;99.90;;;;;;4422069;32;20145;-74
2021/06/22 10:21:59;;;;;;;2.03;1.25;;;20.50;99.90;;;;;;4418267;32;20073;-74
2021/06/22 10:24:26;;;;;;;0.25;0.25;;;20.30;99.90;;;;;;4417704;32;20069;-74
2021/06/22 10:26:54;;;;;;;0.25;0.25;;;20.30;99.90;;;;;;4419738;32;20076;-74
2021/06/22 10:29:22;;;;;;;0.30;0.30;;;20.70;99.90;;;;;;4420788;32;20582;-74
2021/06/22 10:31:49;;;;;;;0.20;0.20;;;20.70;99.90;;;;;;4418037;32;20077;-74
2021/06/22 10:34:16;;;;;;;0.17;0.17;;;21.20;99.90;;;;;;4419831;32;20062;-74
2021/06/22 10:36:50;;;;;;;0.30;0.30;;;21.20;99.90;;;;;;4420002;32;20108;-74
2021/06/22 10:39:21;;;;;;;0.30;0.30;;;21.50;99.90;;;;;;4421895;32;20124;-73
2021/06/22 10:41:47;;;;;;;0.20;0.20;;;21.60;99.90;;;;;;4420312;32;20062;-74
2021/06/22 10:44:35;;;;;;;3.28;0.70;;;21.20;99.90;;;;;;4416448;32;20407;-74
2021/06/22 10:47:19;;;;;;;0.20;0.20;;;20.90;99.90;;;;;;4407664;32;20482;-74
2021/06/22 10:50:22;;;;;;;0.98;0.68;;;20.70;99.90;;;;;;4420750;32;20128;-74
2021/06/22 10:52:50;;;;;;;0.50;0.50;;;20.60;99.90;;;;;;4409206;32;20089;-74
2021/06/22 10:55:20;;;;;;;3.60;1.20;;;21.10;99.90;;;;;;4419407;32;20081;-76
2021/06/22 10:58:07;;;;;;;0.20;0.20;;;21.10;99.90;;;;;;4418499;32;20062;-74
2021/06/22 11:00:50;;;;;;;24.23;0.43;;;21.00;99.90;;;;;;4401242;32;20475;-74
2021/06/22 11:03:22;;;;;;;0.30;0.30;;;20.70;99.90;;;;;;4421057;32;20546;-74
2021/06/22 11:05:49;;;;;;;1.87;0.47;;;21.10;99.90;;;;;;4420768;32;20077;-76
2021/06/22 11:08:17;;;;;;;0.45;0.40;;;21.00;99.90;;;;;;4419849;32;20460;-76
2021/06/22 11:11:06;;;;;;;3.30;1.20;;;20.50;99.90;;;;;;4423568;32;20087;-76
2021/06/22 11:13:56;;;;;;;0.40;0.40;;;20.10;99.90;;;;;;4414018;32;20057;-77
2021/06/22 11:16:25;;;;;;;0.20;0.20;;;19.70;99.90;;;;;;4408747;32;20085;-76
2021/06/22 11:18:56;;;;;;;0.30;0.30;;;19.60;99.90;;;;;;4407133;32;20105;-76
2021/06/22 11:21:24;;;;;;;0.62;0.40;;;19.50;99.90;;;;;;4421950;32;20085;-76
2021/06/22 11:23:57;;;;;;;0.37;0.28;;;19.40;99.90;;;;;;4422244;32;20440;-76
2021/06/22 11:26:24;;;;;;;0.30;0.30;;;19.60;99.90;;;;;;4420486;32;20085;-75
2021/06/22 11:28:56;;;;;;;0.17;0.17;;;19.70;99.90;;;;;;4423632;32;20499;-76
2021/06/22 11:31:43;;;;;;;1.95;0.50;;;19.80;99.90;;;;;;4421912;32;20094;-76
2021/06/22 11:34:15;;;;;;;0.50;0.50;;;19.80;99.90;;;;;;4411858;32;20061;-76
2021/06/22 11:36:43;;;;;;;0.40;0.40;;;19.70;99.90;;;;;;4423101;32;20073;-76
2021/06/22 11:39:11;;;;;;;0.20;0.20;;;19.80;99.90;;;;;;4418176;32;20086;-76
2021/06/22 11:41:38;;;;;;;0.98;0.95;;;19.80;99.90;;;;;;4420725;32;20085;-76
2021/06/22 11:44:13;;;;;;;0.20;0.20;;;19.80;99.90;;;;;;4419819;32;20077;-76
2021/06/22 11:46:41;;;;;;;0.88;0.40;;;19.70;99.90;;;;;;4408615;32;20082;-77
2021/06/22 11:49:07;;;;;;;0.47;0.47;;;19.80;99.90;;;;;;4418622;32;20467;-77
2021/06/22 11:51:51;;;;;;;0.40;0.40;;;19.90;99.90;;;;;;4419060;32;20089;-77
2021/06/22 11:54:20;;;;;;;1.55;0.43;;;20.20;99.90;;;;;;4418855;32;20073;-76
2021/06/22 11:56:47;;;;;;;0.28;0.28;;;20.30;99.90;;;;;;4422178;32;20180;-78
2021/06/22 11:59:13;;;;;;;0.25;0.25;;;20.30;99.90;;;;;;4416928;32;20353;-76
2021/06/22 12:01:46;;;;;;;0.68;0.43;;;20.30;99.90;;;;;;4416584;32;20077;-76
2021/06/22 12:04:12;;;;;;;0.20;0.20;;;20.30;99.90;;;;;;4420312;32;20113;-76
2021/06/22 12:06:38;;;;;;;1.65;0.30;;;20.10;99.90;;;;;;4421751;32;20494;-77
2021/06/22 12:09:21;;;;;;;0.25;0.25;;;20.10;99.90;;;;;;4422426;32;20124;-76
2021/06/22 12:11:47;;;;;;;0.30;0.30;;;20.20;99.90;;;;;;4417959;32;20088;-76
2021/06/22 12:14:17;;;;;;;1.15;0.30;;;20.30;99.90;;;;;;4422781;32;20134;-77
2021/06/22 12:16:44;;;;;;;0.20;0.20;;;20.50;99.90;;;;;;4418919;32;20221;-76
2021/06/22 12:19:15;;;;;;;0.50;0.50;;;20.50;99.90;;;;;;4419264;32;20083;-77
2021/06/22 12:21:46;;;;;;;0.50;0.40;;;20.50;99.90;;;;;;4422750;32;20467;-76
2021/06/22 12:24:12;;;;;;;0.20;0.20;;;20.60;99.90;;;;;;4420362;32;20164;-76
2021/06/22 12:26:39;;;;;;;0.20;0.20;;;20.70;99.90;;;;;;4419590;32;20072;-76
2021/06/22 12:29:23;;;;;;;0.88;0.43;;;20.70;99.90;;;;;;4418433;32;20070;-76
2021/06/22 12:31:56;;;;;;;0.35;0.35;;;20.70;99.90;;;;;;4420572;32;20127;-76
2021/06/22 12:34:24;;;;;;;0.20;0.20;;;21.00;99.90;;;;;;4421802;32;20077;-77
2021/06/22 12:36:50;;;;;;;2.05;1.00;;;21.10;99.90;;;;;;4421220;32;20081;-75
2021/06/22 12:39:17;;;;;;;0.73;0.65;;;21.30;99.90;;;;;;4421761;32;20066;-74
2021/06/22 12:41:44;;;;;;;0.43;0.43;;;21.50;99.90;;;;;;4421919;32;20070;-73
2021/06/22 12:44:09;;;;;;;0.60;0.60;;;22.60;99.90;;;;;;4421820;32;20134;-76
2021/06/22 12:46:39;;;;;;;0.40;0.40;;;22.90;99.90;;;;;;4422735;32;20597;-76